createdAt,value
2018-11-10T00:00:04.727Z,0.00
2018-11-10T00:01:04.716Z,0.00
2018-11-10T00:02:04.705Z,0.00
2018-11-10T00:03:04.692Z,0.00
2018-11-10T00:04:04.691Z,0.00
2018-11-10T00:05:04.669Z,0.00
2018-11-10T00:06:04.658Z,0.00
2018-11-10T00:07:04.648Z,0.00
2018-11-10T00:08:04.700Z,0.00
2018-11-10T00:09:04.625Z,0.00
2018-11-10T00:10:04.618Z,0.00
2018-11-10T00:11:04.601Z,0.00
2018-11-10T00:12:04.591Z,0.00
2018-11-10T00:13:04.580Z,0.00
2018-11-10T00:14:04.569Z,0.00
2018-11-10T00:15:04.558Z,0.00
2018-11-10T00:16:04.543Z,0.00
2018-11-10T00:17:04.532Z,0.00
2018-11-10T00:18:04.521Z,0.00
2018-11-10T00:19:04.511Z,0.00
2018-11-10T00:20:04.497Z,0.00
2018-11-10T00:21:04.486Z,0.00
2018-11-10T00:22:04.475Z,0.00
2018-11-10T00:23:04.465Z,0.00
2018-11-10T00:24:04.452Z,0.00
2018-11-10T00:25:04.442Z,0.00
2018-11-10T00:26:04.430Z,0.00
2018-11-10T00:27:04.417Z,0.00
2018-11-10T00:28:04.406Z,0.00
2018-11-10T00:29:04.396Z,0.00
2018-11-10T00:30:04.384Z,0.00
2018-11-10T00:31:04.372Z,0.00
2018-11-10T00:32:04.358Z,0.00
2018-11-10T00:33:04.349Z,0.00
2018-11-10T00:34:04.336Z,0.00
2018-11-10T00:35:04.324Z,0.00
2018-11-10T00:36:04.314Z,0.00
2018-11-10T00:37:04.301Z,0.00
2018-11-10T00:38:04.294Z,0.00
2018-11-10T00:39:04.279Z,0.00
2018-11-10T00:40:04.267Z,0.00
2018-11-10T00:41:04.254Z,0.00
2018-11-10T00:42:04.245Z,0.00
2018-11-10T00:43:04.233Z,0.00
2018-11-10T00:44:04.221Z,0.00
2018-11-10T00:45:04.209Z,0.00
2018-11-10T00:46:04.200Z,0.00
2018-11-10T00:47:04.184Z,0.00
2018-11-10T00:48:04.176Z,0.00
2018-11-10T00:49:04.167Z,0.00
2018-11-10T00:50:04.152Z,0.00
2018-11-10T00:51:04.138Z,0.00
2018-11-10T00:52:04.128Z,0.00
2018-11-10T00:53:04.115Z,0.00
2018-11-10T00:54:04.105Z,0.00
2018-11-10T00:55:04.092Z,0.00
2018-11-10T00:56:04.082Z,0.00
2018-11-10T00:57:04.070Z,0.00
2018-11-10T00:58:04.062Z,0.00
2018-11-10T00:59:04.049Z,0.00
2018-11-10T01:00:04.037Z,0.00
2018-11-10T01:01:04.027Z,0.00
2018-11-10T01:02:04.013Z,0.00
2018-11-10T01:03:04.002Z,0.00
2018-11-10T01:04:03.991Z,0.00
2018-11-10T01:05:03.978Z,0.00
2018-11-10T01:06:03.967Z,0.00
2018-11-10T01:07:03.956Z,0.00
2018-11-10T01:08:03.943Z,0.00
2018-11-10T01:09:03.935Z,0.00
2018-11-10T01:10:03.920Z,0.00
2018-11-10T01:11:03.910Z,0.00
2018-11-10T01:12:03.897Z,0.00
2018-11-10T01:13:03.886Z,0.00
2018-11-10T01:14:03.875Z,0.00
2018-11-10T01:15:03.866Z,0.00
2018-11-10T01:16:03.850Z,0.00
2018-11-10T01:17:03.840Z,0.00
2018-11-10T01:18:03.828Z,0.00
2018-11-10T01:19:03.819Z,0.00
2018-11-10T01:20:03.804Z,0.00
2018-11-10T01:21:03.794Z,0.00
2018-11-10T01:22:03.782Z,0.00
2018-11-10T01:23:03.771Z,0.00
2018-11-10T01:24:03.760Z,0.00
2018-11-10T01:25:03.746Z,0.00
2018-11-10T01:26:03.736Z,0.00
2018-11-10T01:27:03.724Z,0.00
2018-11-10T01:28:03.805Z,0.00
2018-11-10T01:30:03.690Z,0.00
2018-11-10T01:31:03.678Z,0.00
2018-11-10T01:32:03.669Z,0.00
2018-11-10T01:33:03.655Z,0.00
2018-11-10T01:34:03.644Z,0.00
2018-11-10T01:35:03.630Z,0.00
2018-11-10T01:36:03.620Z,0.00
2018-11-10T01:37:03.609Z,0.00
2018-11-10T01:38:03.599Z,0.00
2018-11-10T01:39:03.585Z,0.00
2018-11-10T01:40:03.570Z,0.00
2018-11-10T01:41:03.561Z,0.00
2018-11-10T01:42:03.548Z,0.00
2018-11-10T01:43:03.536Z,0.00
2018-11-10T01:44:03.525Z,0.00
2018-11-10T01:45:03.515Z,0.00
2018-11-10T01:46:03.503Z,0.00
2018-11-10T01:47:03.491Z,0.00
2018-11-10T01:48:03.479Z,0.00
2018-11-10T01:49:03.468Z,0.00
2018-11-10T01:50:03.459Z,0.00
2018-11-10T01:51:03.446Z,0.00
2018-11-10T01:52:03.435Z,0.00
2018-11-10T01:53:03.421Z,0.00
2018-11-10T01:54:03.410Z,0.00
2018-11-10T01:55:03.398Z,0.00
2018-11-10T01:56:03.389Z,0.00
2018-11-10T01:57:03.374Z,0.00
2018-11-10T01:58:03.365Z,0.00
2018-11-10T01:59:03.351Z,0.00
2018-11-10T02:00:03.340Z,0.00
2018-11-10T02:01:03.326Z,0.00
2018-11-10T02:02:03.315Z,0.00
2018-11-10T02:03:03.303Z,0.00
2018-11-10T02:04:03.295Z,0.00
2018-11-10T02:05:03.280Z,0.00
2018-11-10T02:06:03.269Z,0.00
2018-11-10T02:07:03.256Z,0.00
2018-11-10T02:08:03.246Z,0.00
2018-11-10T02:09:03.239Z,0.00
2018-11-10T02:10:03.223Z,0.00
2018-11-10T02:11:03.210Z,0.00
2018-11-10T02:12:03.201Z,0.00
2018-11-10T02:13:03.192Z,0.00
2018-11-10T02:14:03.177Z,0.00
2018-11-10T02:15:03.164Z,0.00
2018-11-10T02:16:03.153Z,0.00
2018-11-10T02:17:03.142Z,0.00
2018-11-10T02:18:03.131Z,0.00
2018-11-10T02:19:03.119Z,0.00
2018-11-10T02:20:03.107Z,0.00
2018-11-10T02:21:03.096Z,0.00
2018-11-10T02:22:03.084Z,0.00
2018-11-10T02:23:03.074Z,0.00
2018-11-10T02:24:03.063Z,0.00
2018-11-10T02:25:03.049Z,0.00
2018-11-10T02:26:03.038Z,0.00
2018-11-10T02:27:03.025Z,0.00
2018-11-10T02:28:03.015Z,0.00
2018-11-10T02:29:03.005Z,0.00
2018-11-10T02:30:02.991Z,0.00
2018-11-10T02:31:02.994Z,0.00
2018-11-10T02:32:02.972Z,0.00
2018-11-10T02:33:02.958Z,0.00
2018-11-10T02:34:02.949Z,0.00
2018-11-10T02:35:02.937Z,0.00
2018-11-10T02:36:02.924Z,0.00
2018-11-10T02:37:02.912Z,0.00
2018-11-10T02:38:02.900Z,0.00
2018-11-10T02:39:02.890Z,0.00
2018-11-10T02:40:02.877Z,0.00
2018-11-10T02:41:02.870Z,0.00
2018-11-10T02:42:02.856Z,0.00
2018-11-10T02:43:02.842Z,0.00
2018-11-10T02:44:02.829Z,0.00
2018-11-10T02:45:02.823Z,0.00
2018-11-10T02:46:02.813Z,0.00
2018-11-10T02:47:02.795Z,0.00
2018-11-10T02:48:02.786Z,0.00
2018-11-10T02:49:02.773Z,0.00
2018-11-10T02:50:02.762Z,0.00
2018-11-10T02:51:02.753Z,0.00
2018-11-10T02:52:02.740Z,0.00
2018-11-10T02:53:02.727Z,0.00
2018-11-10T02:54:02.722Z,0.00
2018-11-10T02:55:02.704Z,0.00
2018-11-10T02:56:02.692Z,0.00
2018-11-10T02:57:02.679Z,0.00
2018-11-10T02:58:02.670Z,0.00
2018-11-10T02:59:02.658Z,0.00
2018-11-10T03:00:02.645Z,0.00
2018-11-10T03:01:02.632Z,0.00
2018-11-10T03:02:02.623Z,0.00
2018-11-10T03:03:02.611Z,0.00
2018-11-10T03:04:02.598Z,0.00
2018-11-10T03:05:02.587Z,0.00
2018-11-10T03:06:02.576Z,0.00
2018-11-10T03:07:02.563Z,0.00
2018-11-10T03:08:02.553Z,0.00
2018-11-10T03:09:02.541Z,0.00
2018-11-10T03:10:02.528Z,0.00
2018-11-10T03:11:02.517Z,0.00
2018-11-10T03:12:02.508Z,0.00
2018-11-10T03:13:02.497Z,0.00
2018-11-10T03:14:02.484Z,0.00
2018-11-10T03:15:02.468Z,0.00
2018-11-10T03:16:02.459Z,0.00
2018-11-10T03:17:02.448Z,0.00
2018-11-10T03:18:02.437Z,0.00
2018-11-10T03:19:02.422Z,0.00
2018-11-10T03:20:02.412Z,0.00
2018-11-10T03:21:02.400Z,0.00
2018-11-10T03:22:02.389Z,0.00
2018-11-10T03:23:02.377Z,0.00
2018-11-10T03:24:02.366Z,0.00
2018-11-10T03:25:02.354Z,0.00
2018-11-10T03:26:02.342Z,0.00
2018-11-10T03:27:02.331Z,0.00
2018-11-10T03:28:02.318Z,0.00
2018-11-10T03:29:02.309Z,0.00
2018-11-10T03:30:02.295Z,0.00
2018-11-10T03:31:02.292Z,0.00
2018-11-10T03:32:02.273Z,0.00
2018-11-10T03:33:02.260Z,0.00
2018-11-10T03:34:02.248Z,0.00
2018-11-10T03:35:02.238Z,0.00
2018-11-10T03:36:02.224Z,0.00
2018-11-10T03:37:02.214Z,0.00
2018-11-10T03:38:02.204Z,0.00
2018-11-10T03:39:02.214Z,0.00
2018-11-10T03:40:02.178Z,0.00
2018-11-10T03:41:02.167Z,0.00
2018-11-10T03:42:02.156Z,0.00
2018-11-10T03:43:02.143Z,0.00
2018-11-10T03:44:02.130Z,0.00
2018-11-10T03:45:02.123Z,0.00
2018-11-10T03:46:02.109Z,0.00
2018-11-10T03:47:02.095Z,0.00
2018-11-10T03:48:02.093Z,0.00
2018-11-10T03:49:02.074Z,0.00
2018-11-10T03:50:02.060Z,0.00
2018-11-10T03:51:02.049Z,0.00
2018-11-10T03:52:02.037Z,0.00
2018-11-10T03:53:02.024Z,0.00
2018-11-10T03:54:02.014Z,0.00
2018-11-10T03:55:02.003Z,0.00
2018-11-10T03:56:01.989Z,0.00
2018-11-10T03:57:01.978Z,0.00
2018-11-10T03:58:01.967Z,0.00
2018-11-10T03:59:01.956Z,0.00
2018-11-10T04:00:01.944Z,0.00
2018-11-10T04:01:01.931Z,0.00
2018-11-10T04:02:01.919Z,0.00
2018-11-10T04:03:01.907Z,0.00
2018-11-10T04:04:01.904Z,0.00
2018-11-10T04:05:01.884Z,0.00
2018-11-10T04:06:01.871Z,0.00
2018-11-10T04:07:01.861Z,0.00
2018-11-10T04:08:01.848Z,0.00
2018-11-10T04:09:01.838Z,0.00
2018-11-10T04:10:01.830Z,0.00
2018-11-10T04:11:01.813Z,0.00
2018-11-10T04:12:01.803Z,0.00
2018-11-10T04:13:01.792Z,0.00
2018-11-10T04:14:01.783Z,0.00
2018-11-10T04:15:01.766Z,0.00
2018-11-10T04:16:01.755Z,0.00
2018-11-10T04:17:01.742Z,0.00
2018-11-10T04:18:01.731Z,0.00
2018-11-10T04:19:01.718Z,0.00
2018-11-10T04:20:01.707Z,0.00
2018-11-10T04:21:01.694Z,0.00
2018-11-10T04:22:01.686Z,0.00
2018-11-10T04:23:01.671Z,0.00
2018-11-10T04:24:01.660Z,0.00
2018-11-10T04:25:01.647Z,0.00
2018-11-10T04:26:01.638Z,0.00
2018-11-10T04:27:01.625Z,0.00
2018-11-10T04:28:01.614Z,0.00
2018-11-10T04:29:01.601Z,0.00
2018-11-10T04:30:01.590Z,0.00
2018-11-10T04:31:01.583Z,0.00
2018-11-10T04:32:01.565Z,0.00
2018-11-10T04:33:01.555Z,0.00
2018-11-10T04:34:01.543Z,0.00
2018-11-10T04:35:01.537Z,0.00
2018-11-10T04:36:01.519Z,0.00
2018-11-10T04:37:01.509Z,0.00
2018-11-10T04:38:01.494Z,0.00
2018-11-10T04:39:01.483Z,0.00
2018-11-10T04:40:01.471Z,0.00
2018-11-10T04:41:01.458Z,0.00
2018-11-10T04:42:01.448Z,0.00
2018-11-10T04:43:01.434Z,0.00
2018-11-10T04:44:01.426Z,0.00
2018-11-10T04:45:01.417Z,0.00
2018-11-10T04:46:01.399Z,0.00
2018-11-10T04:47:01.386Z,0.00
2018-11-10T04:48:01.376Z,0.00
2018-11-10T04:49:01.364Z,0.00
2018-11-10T04:50:01.354Z,0.00
2018-11-10T04:51:01.340Z,0.00
2018-11-10T04:52:01.333Z,0.00
2018-11-10T04:53:01.318Z,0.00
2018-11-10T04:54:01.305Z,0.00
2018-11-10T04:55:01.292Z,0.00
2018-11-10T04:56:01.286Z,0.00
2018-11-10T04:57:01.269Z,0.00
2018-11-10T04:58:01.257Z,0.00
2018-11-10T04:59:01.245Z,0.00
2018-11-10T05:00:01.233Z,0.00
2018-11-10T05:01:01.223Z,0.00
2018-11-10T05:02:01.211Z,0.00
2018-11-10T05:03:01.199Z,0.00
2018-11-10T05:04:01.187Z,0.00
2018-11-10T05:05:01.175Z,0.00
2018-11-10T05:06:01.162Z,0.00
2018-11-10T05:07:01.151Z,0.00
2018-11-10T05:08:01.138Z,0.00
2018-11-10T05:09:01.128Z,0.00
2018-11-10T05:10:01.116Z,0.00
2018-11-10T05:11:01.103Z,0.00
2018-11-10T05:12:01.092Z,0.00
2018-11-10T05:13:01.078Z,0.00
2018-11-10T05:14:01.067Z,0.00
2018-11-10T05:15:01.054Z,0.00
2018-11-10T05:16:01.042Z,0.00
2018-11-10T05:17:01.031Z,0.00
2018-11-10T05:18:01.020Z,0.00
2018-11-10T05:19:01.004Z,0.00
2018-11-10T05:20:00.995Z,0.00
2018-11-10T05:21:00.981Z,0.00
2018-11-10T05:22:00.969Z,0.00
2018-11-10T05:23:00.958Z,0.00
2018-11-10T05:24:00.949Z,0.00
2018-11-10T05:25:00.936Z,0.00
2018-11-10T05:26:00.922Z,0.00
2018-11-10T05:27:00.909Z,0.00
2018-11-10T05:28:00.898Z,0.00
2018-11-10T05:29:00.887Z,0.00
2018-11-10T05:30:00.875Z,0.00
2018-11-10T05:31:00.874Z,0.00
2018-11-10T05:32:00.850Z,0.00
2018-11-10T05:33:00.839Z,0.00
2018-11-10T05:34:00.828Z,0.00
2018-11-10T05:35:00.814Z,0.00
2018-11-10T05:36:00.803Z,0.00
2018-11-10T05:37:00.791Z,0.00
2018-11-10T05:38:00.779Z,0.00
2018-11-10T05:39:00.766Z,0.00
2018-11-10T05:40:00.754Z,0.00
2018-11-10T05:41:00.742Z,0.00
2018-11-10T05:42:00.733Z,0.00
2018-11-10T05:43:00.718Z,0.00
2018-11-10T05:44:00.707Z,0.00
2018-11-10T05:45:00.694Z,0.00
2018-11-10T05:46:00.686Z,0.00
2018-11-10T05:47:00.670Z,0.00
2018-11-10T05:48:00.660Z,0.00
2018-11-10T05:49:00.647Z,0.00
2018-11-10T05:50:00.637Z,0.00
2018-11-10T05:51:00.624Z,0.00
2018-11-10T05:52:00.611Z,0.00
2018-11-10T05:53:00.599Z,0.00
2018-11-10T05:54:00.589Z,0.00
2018-11-10T05:55:00.576Z,0.00
2018-11-10T05:56:00.565Z,0.00
2018-11-10T05:57:00.596Z,0.00
2018-11-10T05:58:00.542Z,0.00
2018-11-10T05:59:00.529Z,0.00
2018-11-10T06:00:00.517Z,0.00
2018-11-10T06:01:00.506Z,0.00
2018-11-10T06:02:00.492Z,0.00
2018-11-10T06:03:00.534Z,0.00
2018-11-10T06:04:00.468Z,0.00
2018-11-10T06:05:00.457Z,4.00
2018-11-10T06:06:00.445Z,0.00
2018-11-10T06:07:00.433Z,0.00
2018-11-10T06:08:00.420Z,4.00
2018-11-10T06:09:00.440Z,0.00
2018-11-10T06:10:00.603Z,4.00
2018-11-10T06:11:00.384Z,4.00
2018-11-10T06:12:00.372Z,4.00
2018-11-10T06:13:00.362Z,0.00
2018-11-10T06:14:00.349Z,4.00
2018-11-10T06:15:00.335Z,4.00
2018-11-10T06:16:00.372Z,4.00
2018-11-10T06:17:00.314Z,4.00
2018-11-10T06:18:00.301Z,4.00
2018-11-10T06:19:00.484Z,4.00
2018-11-10T06:20:00.277Z,8.00
2018-11-10T06:21:00.264Z,4.00
2018-11-10T06:22:00.253Z,8.00
2018-11-10T06:23:00.243Z,8.00
2018-11-10T06:24:00.231Z,8.00
2018-11-10T06:25:00.218Z,8.00
2018-11-10T06:26:00.258Z,8.00
2018-11-10T06:27:00.192Z,8.00
2018-11-10T06:28:00.179Z,12.00
2018-11-10T06:29:00.176Z,8.00
2018-11-10T06:30:00.159Z,12.00
2018-11-10T06:31:00.143Z,16.00
2018-11-10T06:32:00.133Z,16.00
2018-11-10T06:33:00.121Z,20.00
2018-11-10T06:34:00.111Z,20.00
2018-11-10T06:35:00.098Z,20.00
2018-11-10T06:36:00.084Z,24.00
2018-11-10T06:37:00.075Z,24.00
2018-11-10T06:38:00.064Z,28.00
2018-11-10T06:39:00.049Z,24.00
2018-11-10T06:40:00.038Z,28.00
2018-11-10T06:41:00.029Z,28.00
2018-11-10T06:42:00.018Z,32.00
2018-11-10T06:43:00.000Z,36.00
2018-11-10T06:43:59.988Z,36.00
2018-11-10T06:44:59.977Z,40.00
2018-11-10T06:45:59.968Z,40.00
2018-11-10T06:46:59.971Z,44.00
2018-11-10T06:47:59.941Z,48.00
2018-11-10T06:48:59.931Z,48.00
2018-11-10T06:49:59.920Z,56.00
2018-11-10T06:50:59.905Z,60.00
2018-11-10T06:51:59.895Z,60.00
2018-11-10T06:52:59.964Z,60.00
2018-11-10T06:53:59.870Z,64.00
2018-11-10T06:54:59.859Z,68.00
2018-11-10T06:55:59.846Z,72.00
2018-11-10T06:56:59.833Z,76.00
2018-11-10T06:57:59.820Z,80.00
2018-11-10T06:58:59.808Z,80.00
2018-11-10T06:59:59.796Z,80.00
2018-11-10T07:00:59.784Z,76.00
2018-11-10T07:02:59.762Z,76.00
2018-11-10T07:03:59.754Z,76.00
2018-11-10T07:04:59.740Z,80.00
2018-11-10T07:05:59.725Z,84.00
2018-11-10T07:06:59.713Z,88.00
2018-11-10T07:07:59.701Z,92.00
2018-11-10T07:08:59.690Z,92.00
2018-11-10T07:09:59.677Z,100.00
2018-11-10T07:10:59.666Z,104.00
2018-11-10T07:11:59.652Z,108.00
2018-11-10T07:12:59.641Z,112.00
2018-11-10T07:13:59.629Z,116.00
2018-11-10T07:14:59.618Z,116.00
2018-11-10T07:15:59.608Z,112.00
2018-11-10T07:16:59.592Z,112.00
2018-11-10T07:17:59.625Z,116.00
2018-11-10T07:18:59.567Z,116.00
2018-11-10T07:19:59.556Z,116.00
2018-11-10T07:20:59.546Z,120.00
2018-11-10T07:21:59.546Z,120.00
2018-11-10T07:22:59.530Z,116.00
2018-11-10T07:23:59.510Z,116.00
2018-11-10T07:24:59.565Z,124.00
2018-11-10T07:25:59.484Z,132.00
2018-11-10T07:26:59.473Z,140.00
2018-11-10T07:27:59.459Z,148.00
2018-11-10T07:28:59.450Z,156.00
2018-11-10T07:29:59.441Z,168.00
2018-11-10T07:30:59.424Z,172.00
2018-11-10T07:31:59.572Z,184.00
2018-11-10T07:32:59.400Z,200.00
2018-11-10T07:33:59.386Z,208.00
2018-11-10T07:34:59.376Z,200.00
2018-11-10T07:35:59.362Z,188.00
2018-11-10T07:36:59.351Z,180.00
2018-11-10T07:37:59.339Z,176.00
2018-11-10T07:38:59.326Z,176.00
2018-11-10T07:39:59.313Z,172.00
2018-11-10T07:40:59.303Z,160.00
2018-11-10T07:41:59.289Z,172.00
2018-11-10T07:42:59.312Z,196.00
2018-11-10T07:43:59.267Z,212.00
2018-11-10T07:44:59.255Z,220.00
2018-11-10T07:45:59.242Z,228.00
2018-11-10T07:46:59.230Z,228.00
2018-11-10T07:47:59.217Z,232.00
2018-11-10T07:48:59.207Z,252.00
2018-11-10T07:49:59.193Z,268.00
2018-11-10T07:50:59.231Z,260.00
2018-11-10T07:51:59.169Z,260.00
2018-11-10T07:52:59.160Z,272.00
2018-11-10T07:53:59.146Z,296.00
2018-11-10T07:54:59.134Z,308.00
2018-11-10T07:55:59.220Z,312.00
2018-11-10T07:56:59.109Z,312.00
2018-11-10T07:57:59.097Z,332.00
2018-11-10T07:58:59.083Z,356.00
2018-11-10T07:59:59.073Z,388.00
2018-11-10T08:00:59.060Z,412.00
2018-11-10T08:01:59.048Z,408.00
2018-11-10T08:02:59.036Z,412.00
2018-11-10T08:03:59.026Z,432.00
2018-11-10T08:04:59.011Z,448.00
2018-11-10T08:05:59.002Z,452.00
2018-11-10T08:06:58.987Z,460.00
2018-11-10T08:07:58.977Z,484.00
2018-11-10T08:08:58.963Z,508.00
2018-11-10T08:09:58.954Z,516.00
2018-11-10T08:10:58.941Z,508.00
2018-11-10T08:11:59.068Z,508.00
2018-11-10T08:12:58.916Z,524.00
2018-11-10T08:13:58.905Z,536.00
2018-11-10T08:14:58.893Z,568.00
2018-11-10T08:15:58.882Z,600.00
2018-11-10T08:16:58.870Z,600.00
2018-11-10T08:17:58.856Z,604.00
2018-11-10T08:18:58.849Z,632.00
2018-11-10T08:19:58.832Z,676.00
2018-11-10T08:20:58.822Z,712.00
2018-11-10T08:21:58.810Z,728.00
2018-11-10T08:22:58.799Z,720.00
2018-11-10T08:23:58.786Z,704.00
2018-11-10T08:24:58.782Z,688.00
2018-11-10T08:25:58.765Z,660.00
2018-11-10T08:26:58.754Z,576.00
2018-11-10T08:27:58.740Z,508.00
2018-11-10T08:28:58.728Z,484.00
2018-11-10T08:29:58.719Z,504.00
2018-11-10T08:30:58.709Z,532.00
2018-11-10T08:31:58.692Z,548.00
2018-11-10T08:32:58.681Z,548.00
2018-11-10T08:33:58.670Z,536.00
2018-11-10T08:34:58.658Z,544.00
2018-11-10T08:35:58.648Z,552.00
2018-11-10T08:36:58.635Z,556.00
2018-11-10T08:37:58.624Z,556.00
2018-11-10T08:38:58.646Z,564.00
2018-11-10T08:39:58.599Z,572.00
2018-11-10T08:40:58.588Z,560.00
2018-11-10T08:41:58.577Z,524.00
2018-11-10T08:42:58.563Z,536.00
2018-11-10T08:43:58.554Z,572.00
2018-11-10T08:44:58.541Z,592.00
2018-11-10T08:45:58.533Z,600.00
2018-11-10T08:46:58.516Z,608.00
2018-11-10T08:47:58.504Z,620.00
2018-11-10T08:48:58.558Z,652.00
2018-11-10T08:49:58.484Z,696.00
2018-11-10T08:50:58.469Z,720.00
2018-11-10T08:51:58.458Z,736.00
2018-11-10T08:52:58.447Z,756.00
2018-11-10T08:53:58.437Z,812.00
2018-11-10T08:54:58.423Z,844.00
2018-11-10T08:55:58.414Z,880.00
2018-11-10T08:56:58.401Z,928.00
2018-11-10T08:57:58.390Z,960.00
2018-11-10T08:58:58.433Z,984.00
2018-11-10T08:59:58.366Z,992.00
2018-11-10T09:00:58.355Z,968.00
2018-11-10T09:01:58.344Z,932.00
2018-11-10T09:02:58.329Z,924.00
2018-11-10T09:03:58.321Z,948.00
2018-11-10T09:04:58.307Z,928.00
2018-11-10T09:05:58.296Z,924.00
2018-11-10T09:06:58.286Z,948.00
2018-11-10T09:07:58.270Z,1004.00
2018-11-10T09:08:58.261Z,1044.00
2018-11-10T09:09:58.368Z,1032.00
2018-11-10T09:10:58.238Z,1004.00
2018-11-10T09:11:58.226Z,1024.00
2018-11-10T09:12:58.214Z,1080.00
2018-11-10T09:13:58.204Z,1168.00
2018-11-10T09:14:58.247Z,1184.00
2018-11-10T09:15:58.180Z,1116.00
2018-11-10T09:16:58.168Z,1136.00
2018-11-10T09:17:58.156Z,1212.00
2018-11-10T09:18:58.143Z,1312.00
2018-11-10T09:19:58.133Z,1288.00
2018-11-10T09:20:58.130Z,1172.00
2018-11-10T09:21:58.112Z,1112.00
2018-11-10T09:22:58.101Z,1148.00
2018-11-10T09:23:58.087Z,1268.00
2018-11-10T09:24:58.072Z,1348.00
2018-11-10T09:25:58.061Z,1380.00
2018-11-10T09:26:58.049Z,1384.00
2018-11-10T09:27:58.040Z,1396.00
2018-11-10T09:28:58.028Z,1540.00
2018-11-10T09:29:58.018Z,1696.00
2018-11-10T09:30:58.036Z,1748.00
2018-11-10T09:31:57.995Z,1684.00
2018-11-10T09:32:57.984Z,1684.00
2018-11-10T09:33:57.973Z,1664.00
2018-11-10T09:34:57.966Z,1600.00
2018-11-10T09:35:57.951Z,1592.00
2018-11-10T09:36:57.942Z,1628.00
2018-11-10T09:37:57.926Z,1672.00
2018-11-10T09:38:57.916Z,1740.00
2018-11-10T09:39:57.906Z,1876.00
2018-11-10T09:40:57.892Z,2080.00
2018-11-10T09:41:57.959Z,2148.00
2018-11-10T09:42:57.872Z,2188.00
2018-11-10T09:43:57.861Z,2208.00
2018-11-10T09:44:57.849Z,2236.00
2018-11-10T09:45:57.838Z,2188.00
2018-11-10T09:46:57.826Z,2200.00
2018-11-10T09:47:57.817Z,2200.00
2018-11-10T09:48:57.805Z,2028.00
2018-11-10T09:49:57.794Z,1744.00
2018-11-10T09:50:57.818Z,1460.00
2018-11-10T09:51:57.772Z,1332.00
2018-11-10T09:52:57.762Z,1296.00
2018-11-10T09:53:57.797Z,1308.00
2018-11-10T09:54:57.741Z,1344.00
2018-11-10T09:55:57.730Z,1312.00
2018-11-10T09:56:57.719Z,1312.00
2018-11-10T09:57:57.708Z,1348.00
2018-11-10T09:58:57.695Z,1428.00
2018-11-10T09:59:57.684Z,1488.00
2018-11-10T10:00:57.764Z,1540.00
2018-11-10T10:01:58.025Z,1580.00
2018-11-10T10:02:57.659Z,1584.00
2018-11-10T10:03:57.645Z,1576.00
2018-11-10T10:04:57.633Z,1568.00
2018-11-10T10:05:57.621Z,1548.00
2018-11-10T10:06:57.609Z,1532.00
2018-11-10T10:07:57.599Z,1492.00
2018-11-10T10:08:57.662Z,1488.00
2018-11-10T10:09:57.578Z,1484.00
2018-11-10T10:10:57.569Z,1480.00
2018-11-10T10:11:57.556Z,1464.00
2018-11-10T10:12:57.547Z,1432.00
2018-11-10T10:13:57.536Z,1420.00
2018-11-10T10:14:57.526Z,1400.00
2018-11-10T10:15:57.590Z,1360.00
2018-11-10T10:16:57.508Z,1320.00
2018-11-10T10:17:57.493Z,1308.00
2018-11-10T10:18:57.481Z,1332.00
2018-11-10T10:19:57.469Z,1340.00
2018-11-10T10:20:57.461Z,1344.00
2018-11-10T10:21:57.532Z,1364.00
2018-11-10T10:22:57.439Z,1404.00
2018-11-10T10:23:57.527Z,1448.00
2018-11-10T10:24:57.417Z,1496.00
2018-11-10T10:25:57.408Z,1536.00
2018-11-10T10:26:57.397Z,1580.00
2018-11-10T10:27:57.387Z,1672.00
2018-11-10T10:28:57.445Z,1756.00
2018-11-10T10:29:57.367Z,1804.00
2018-11-10T10:30:57.353Z,1844.00
2018-11-10T10:31:57.343Z,1860.00
2018-11-10T10:32:57.334Z,1868.00
2018-11-10T10:33:57.333Z,1848.00
2018-11-10T10:34:57.378Z,1832.00
2018-11-10T10:35:57.300Z,1832.00
2018-11-10T10:36:57.293Z,1848.00
2018-11-10T10:37:57.282Z,1864.00
2018-11-10T10:38:57.271Z,1884.00
2018-11-10T10:39:57.258Z,1900.00
2018-11-10T10:40:57.250Z,1932.00
2018-11-10T10:41:57.238Z,1932.00
2018-11-10T10:42:57.236Z,1940.00
2018-11-10T10:43:57.317Z,1936.00
2018-11-10T10:44:57.207Z,1920.00
2018-11-10T10:45:57.197Z,1908.00
2018-11-10T10:46:57.186Z,1896.00
2018-11-10T10:47:57.177Z,1860.00
2018-11-10T10:48:57.387Z,1812.00
2018-11-10T10:49:57.157Z,1788.00
2018-11-10T10:50:57.144Z,1768.00
2018-11-10T10:51:57.135Z,1732.00
2018-11-10T10:52:57.124Z,1680.00
2018-11-10T10:53:57.118Z,1644.00
2018-11-10T10:54:57.105Z,1612.00
2018-11-10T10:55:57.171Z,1584.00
2018-11-10T10:56:57.107Z,1572.00
2018-11-10T10:57:57.071Z,1600.00
2018-11-10T10:58:57.060Z,1616.00
2018-11-10T10:59:57.051Z,1636.00
2018-11-10T11:00:57.041Z,1632.00
2018-11-10T11:01:57.031Z,1592.00
2018-11-10T11:02:57.173Z,1544.00
2018-11-10T11:03:57.010Z,1480.00
2018-11-10T11:04:57.002Z,1448.00
2018-11-10T11:05:56.991Z,1448.00
2018-11-10T11:06:56.979Z,1464.00
2018-11-10T11:07:56.969Z,1500.00
2018-11-10T11:08:57.002Z,1524.00
2018-11-10T11:09:56.949Z,1608.00
2018-11-10T11:10:56.941Z,1684.00
2018-11-10T11:11:56.926Z,1708.00
2018-11-10T11:12:56.919Z,1692.00
2018-11-10T11:13:56.910Z,1676.00
2018-11-10T11:14:56.953Z,1680.00
2018-11-10T11:15:56.890Z,1660.00
2018-11-10T11:16:56.876Z,1636.00
2018-11-10T11:17:56.866Z,1588.00
2018-11-10T11:18:56.855Z,1572.00
2018-11-10T11:19:56.844Z,1560.00
2018-11-10T11:20:56.833Z,1592.00
2018-11-10T11:21:56.883Z,1640.00
2018-11-10T11:22:56.815Z,1716.00
2018-11-10T11:23:56.803Z,1796.00
2018-11-10T11:24:56.800Z,1744.00
2018-11-10T11:25:56.785Z,1676.00
2018-11-10T11:26:56.775Z,1616.00
2018-11-10T11:27:56.763Z,1596.00
2018-11-10T11:28:56.807Z,1580.00
2018-11-10T11:29:56.746Z,1576.00
2018-11-10T11:30:56.764Z,1560.00
2018-11-10T11:31:56.726Z,1564.00
2018-11-10T11:32:56.715Z,1592.00
2018-11-10T11:33:56.703Z,1620.00
2018-11-10T11:34:56.693Z,1672.00
2018-11-10T11:35:56.682Z,1712.00
2018-11-10T11:36:56.674Z,1716.00
2018-11-10T11:37:56.662Z,1720.00
2018-11-10T11:38:56.653Z,1736.00
2018-11-10T11:39:56.641Z,1764.00
2018-11-10T11:40:56.707Z,1788.00
2018-11-10T11:41:56.626Z,1812.00
2018-11-10T11:42:56.613Z,1840.00
2018-11-10T11:43:56.602Z,1896.00
2018-11-10T11:44:56.593Z,1892.00
2018-11-10T11:45:56.584Z,1896.00
2018-11-10T11:46:56.571Z,1944.00
2018-11-10T11:47:56.563Z,1884.00
2018-11-10T11:48:56.550Z,1856.00
2018-11-10T11:49:56.601Z,1852.00
2018-11-10T11:50:56.533Z,1852.00
2018-11-10T11:51:56.521Z,1860.00
2018-11-10T11:52:56.511Z,1860.00
2018-11-10T11:53:56.502Z,1868.00
2018-11-10T11:54:56.504Z,1880.00
2018-11-10T11:55:56.481Z,1928.00
2018-11-10T11:56:56.472Z,1964.00
2018-11-10T11:57:56.571Z,1968.00
2018-11-10T11:58:56.453Z,2052.00
2018-11-10T11:59:56.441Z,1964.00
2018-11-10T12:00:56.432Z,1948.00
2018-11-10T12:01:56.453Z,1948.00
2018-11-10T12:02:56.411Z,1956.00
2018-11-10T12:03:56.402Z,1972.00
2018-11-10T12:04:56.391Z,2016.00
2018-11-10T12:05:56.385Z,2024.00
2018-11-10T12:06:56.374Z,2012.00
2018-11-10T12:07:56.363Z,2028.00
2018-11-10T12:08:56.351Z,1996.00
2018-11-10T12:09:56.341Z,2008.00
2018-11-10T12:10:56.338Z,2048.00
2018-11-10T12:11:56.322Z,2116.00
2018-11-10T12:12:56.311Z,2144.00
2018-11-10T12:13:56.308Z,2336.00
2018-11-10T12:14:56.293Z,2448.00
2018-11-10T12:15:56.284Z,2364.00
2018-11-10T12:16:56.360Z,2480.00
2018-11-10T12:17:56.269Z,2472.00
2018-11-10T12:18:56.252Z,2396.00
2018-11-10T12:19:56.242Z,2260.00
2018-11-10T12:20:56.290Z,2316.00
2018-11-10T12:21:56.291Z,2324.00
2018-11-10T12:22:56.220Z,2500.00
2018-11-10T12:23:56.203Z,2436.00
2018-11-10T12:24:56.195Z,2264.00
2018-11-10T12:25:56.185Z,2184.00
2018-11-10T12:26:56.295Z,2236.00
2018-11-10T12:27:56.165Z,2140.00
2018-11-10T12:28:56.157Z,2064.00
2018-11-10T12:29:56.146Z,2044.00
2018-11-10T12:30:56.135Z,2040.00
2018-11-10T12:31:56.242Z,2076.00
2018-11-10T12:32:56.117Z,2088.00
2018-11-10T12:33:56.107Z,2336.00
2018-11-10T12:34:56.099Z,2260.00
2018-11-10T12:35:56.088Z,2224.00
2018-11-10T12:36:56.080Z,2348.00
2018-11-10T12:37:56.072Z,2304.00
2018-11-10T12:38:56.097Z,2332.00
2018-11-10T12:39:56.051Z,2180.00
2018-11-10T12:40:56.040Z,2012.00
2018-11-10T12:41:56.033Z,2092.00
2018-11-10T12:42:56.023Z,2220.00
2018-11-10T12:43:56.012Z,2172.00
2018-11-10T12:44:56.003Z,2180.00
2018-11-10T12:45:55.996Z,2100.00
2018-11-10T12:46:55.985Z,2104.00
2018-11-10T12:47:55.979Z,2160.00
2018-11-10T12:48:56.009Z,2204.00